createdAt,value
2018-03-06T00:02:02.339Z,53.78
2018-03-06T00:04:34.308Z,53.97
2018-03-06T00:07:06.108Z,53.69
2018-03-06T00:09:47.576Z,54.03
2018-03-06T00:12:36.280Z,54.32
2018-03-06T00:15:25.799Z,53.82
2018-03-06T00:17:59.007Z,53.84
2018-03-06T00:20:31.719Z,53.84
2018-03-06T00:23:03.530Z,53.79
2018-03-06T00:25:35.085Z,53.85
2018-03-06T00:28:06.852Z,54.14
2018-03-06T00:30:39.788Z,55.02
2018-03-06T00:33:11.206Z,54.71
2018-03-06T00:35:45.190Z,54.96
2018-03-06T00:38:16.861Z,54.58
2018-03-06T00:40:49.435Z,55.28
2018-03-06T00:43:21.235Z,54.81
2018-03-06T00:45:59.414Z,55.70
2018-03-06T00:48:31.207Z,54.89
2018-03-06T00:51:03.507Z,54.88
2018-03-06T00:53:36.228Z,54.82
2018-03-06T00:56:08.077Z,54.92
2018-03-06T00:58:39.879Z,54.69
2018-03-06T01:01:12.009Z,54.80
2018-03-06T01:03:44.152Z,54.61
2018-03-06T01:06:15.995Z,54.59
2018-03-06T01:08:48.818Z,54.98
2018-03-06T01:11:21.443Z,56.61
2018-03-06T01:13:53.309Z,56.32
2018-03-06T01:16:27.435Z,55.61
2018-03-06T01:18:59.271Z,55.20
2018-03-06T01:21:31.667Z,54.81
2018-03-06T01:24:03.221Z,54.67
2018-03-06T01:26:34.953Z,55.62
2018-03-06T01:29:06.483Z,56.36
2018-03-06T01:31:38.591Z,56.10
2018-03-06T01:34:10.629Z,56.15
2018-03-06T01:36:42.434Z,56.83
2018-03-06T01:39:14.112Z,56.05
2018-03-06T01:41:45.695Z,55.49
2018-03-06T01:44:18.089Z,55.85
2018-03-06T01:46:50.376Z,55.76
2018-03-06T01:49:23.201Z,55.49
2018-03-06T01:51:59.730Z,55.81
2018-03-06T01:54:31.290Z,55.74
2018-03-06T01:57:03.543Z,55.54
2018-03-06T01:59:34.901Z,55.77
2018-03-06T02:02:06.475Z,55.43
2018-03-06T02:04:37.545Z,55.57
2018-03-06T02:07:08.574Z,55.47
2018-03-06T02:09:39.436Z,55.83
2018-03-06T02:12:11.697Z,55.55
2018-03-06T02:14:44.839Z,55.43
2018-03-06T02:17:18.511Z,55.65
2018-03-06T02:19:50.005Z,55.37
2018-03-06T02:22:21.807Z,55.14
2018-03-06T02:24:52.965Z,55.82
2018-03-06T02:27:25.087Z,56.39
2018-03-06T02:30:07.435Z,55.97
2018-03-06T02:32:39.863Z,55.37
2018-03-06T02:35:11.945Z,55.71
2018-03-06T02:37:43.372Z,56.32
2018-03-06T02:40:14.655Z,56.36
2018-03-06T02:42:45.746Z,55.97
2018-03-06T02:45:17.097Z,55.70
2018-03-06T02:47:48.073Z,55.80
2018-03-06T02:50:19.533Z,56.23
2018-03-06T02:57:24.423Z,56.11
2018-03-06T02:59:55.765Z,56.34
2018-03-06T03:02:28.166Z,56.33
2018-03-06T03:05:00.152Z,56.46
2018-03-06T03:07:30.919Z,56.15
2018-03-06T03:10:02.247Z,56.59
2018-03-06T03:12:33.312Z,56.58
2018-03-06T03:15:06.292Z,56.08
2018-03-06T03:17:38.057Z,55.93
2018-03-06T03:20:08.869Z,55.71
2018-03-06T03:22:39.632Z,55.63
2018-03-06T03:25:11.554Z,55.64
2018-03-06T03:27:42.143Z,55.68
2018-03-06T03:30:16.068Z,55.82
2018-03-06T03:32:46.673Z,56.11
2018-03-06T03:35:17.693Z,56.32
2018-03-06T03:37:48.675Z,56.44
2018-03-06T03:40:24.805Z,56.27
2018-03-06T03:42:58.211Z,56.17
2018-03-06T03:45:30.399Z,56.22
2018-03-06T03:48:11.318Z,57.32
2018-03-06T03:50:47.461Z,56.50
2018-03-06T03:53:34.773Z,55.95
2018-03-06T03:56:05.762Z,55.72
2018-03-06T03:58:36.307Z,55.56
2018-03-06T04:01:07.223Z,56.06
2018-03-06T04:03:38.005Z,55.99
2018-03-06T04:06:09.209Z,56.29
2018-03-06T04:08:39.791Z,56.46
2018-03-06T04:11:11.105Z,56.59
2018-03-06T04:13:42.618Z,56.89
2018-03-06T04:16:14.320Z,57.10
2018-03-06T04:18:45.960Z,57.25
2018-03-06T04:21:18.420Z,56.91
2018-03-06T04:23:49.074Z,56.98
2018-03-06T04:26:21.595Z,56.88
2018-03-06T04:28:52.460Z,56.85
2018-03-06T04:31:23.478Z,56.67
2018-03-06T04:33:55.413Z,56.74
2018-03-06T04:36:27.687Z,57.11
2018-03-06T04:38:59.144Z,57.29
2018-03-06T04:41:29.949Z,57.40
2018-03-06T04:44:01.983Z,57.44
2018-03-06T04:46:33.810Z,56.93
2018-03-06T04:49:06.670Z,56.84
2018-03-06T04:54:45.987Z,57.21
2018-03-06T04:57:23.776Z,57.19
2018-03-06T04:59:54.369Z,57.00
2018-03-06T05:02:27.229Z,57.16
2018-03-06T05:05:03.584Z,56.84
2018-03-06T05:07:41.531Z,56.95
2018-03-06T05:10:14.686Z,57.02
2018-03-06T05:12:48.304Z,57.00
2018-03-06T05:15:19.814Z,56.70
2018-03-06T05:17:51.642Z,56.46
2018-03-06T05:20:22.922Z,56.59
2018-03-06T05:22:53.850Z,56.61
2018-03-06T05:25:24.911Z,56.42
2018-03-06T05:27:57.620Z,56.51
2018-03-06T05:30:28.708Z,56.41
2018-03-06T05:33:00.140Z,56.78
2018-03-06T05:35:31.419Z,56.20
2018-03-06T05:38:02.851Z,56.28
2018-03-06T05:40:34.327Z,55.91
2018-03-06T05:43:05.293Z,56.02
2018-03-06T05:45:37.399Z,55.68
2018-03-06T05:48:08.650Z,55.77
2018-03-06T05:50:39.746Z,55.86
2018-03-06T05:53:11.862Z,55.60
2018-03-06T05:55:43.165Z,54.72
2018-03-06T05:58:15.630Z,54.88
2018-03-06T06:00:49.181Z,55.27
2018-03-06T06:03:20.553Z,55.22
2018-03-06T06:05:51.964Z,55.36
2018-03-06T06:08:23.979Z,55.26
2018-03-06T06:10:55.693Z,54.98
2018-03-06T06:13:28.943Z,54.73
2018-03-06T06:16:01.475Z,54.60
2018-03-06T06:18:33.287Z,54.62
2018-03-06T06:21:04.620Z,54.52
2018-03-06T06:23:38.720Z,54.49
2018-03-06T06:26:13.104Z,54.65
2018-03-06T06:28:46.203Z,54.53
2018-03-06T06:31:18.939Z,54.52
2018-03-06T06:33:51.051Z,54.26
2018-03-06T06:36:22.249Z,54.17
2018-03-06T06:38:53.898Z,54.18
2018-03-06T06:41:27.220Z,54.06
2018-03-06T06:43:59.336Z,54.76
2018-03-06T06:46:42.447Z,54.37
2018-03-06T06:52:02.479Z,54.18
2018-03-06T06:54:34.731Z,54.03
2018-03-06T06:57:08.126Z,53.98
2018-03-06T06:59:40.399Z,53.55
2018-03-06T07:02:13.592Z,53.79
2018-03-06T07:04:45.178Z,53.99
2018-03-06T07:07:17.095Z,53.72
2018-03-06T07:09:50.777Z,53.82
2018-03-06T07:12:23.222Z,53.96
2018-03-06T07:15:18.427Z,54.01
2018-03-06T07:17:50.940Z,53.74
2018-03-06T07:20:22.496Z,53.87
2018-03-06T07:22:54.382Z,54.09
2018-03-06T07:25:27.028Z,53.50
2018-03-06T07:27:58.874Z,53.98
2018-03-06T07:30:30.428Z,53.37
2018-03-06T07:33:01.948Z,53.55
2018-03-06T07:35:33.298Z,53.25
2018-03-06T07:38:05.174Z,53.17
2018-03-06T07:40:36.384Z,53.13
2018-03-06T07:43:08.511Z,53.35
2018-03-06T07:45:40.889Z,53.41
2018-03-06T07:50:42.014Z,53.28
2018-03-06T07:53:13.814Z,53.27
2018-03-06T07:55:48.116Z,52.35
2018-03-06T07:58:19.661Z,52.11
2018-03-06T08:00:52.482Z,53.05
2018-03-06T08:03:23.980Z,52.02
2018-03-06T08:05:55.889Z,51.89
2018-03-06T08:08:28.184Z,51.51
2018-03-06T08:11:00.290Z,51.33
2018-03-06T08:13:31.640Z,50.66
2018-03-06T08:16:04.294Z,50.91
2018-03-06T08:18:37.128Z,50.35
2018-03-06T08:21:09.066Z,50.26
2018-03-06T08:23:40.607Z,50.32
2018-03-06T08:26:15.411Z,50.47
2018-03-06T08:28:57.341Z,50.94
2018-03-06T08:31:30.392Z,49.87
2018-03-06T08:34:01.611Z,49.32
2018-03-06T08:36:34.481Z,48.61
2018-03-06T08:39:07.184Z,47.47
2018-03-06T08:41:42.224Z,47.54
2018-03-06T08:44:13.936Z,46.45
2018-03-06T08:46:46.332Z,45.97
2018-03-06T08:49:17.622Z,44.92
2018-03-06T08:51:50.061Z,43.79
2018-03-06T08:54:21.592Z,43.36
2018-03-06T08:56:53.206Z,42.27
2018-03-06T08:59:24.681Z,42.42
2018-03-06T09:01:57.517Z,41.32
2018-03-06T09:04:29.435Z,40.33
2018-03-06T09:07:01.612Z,40.37
2018-03-06T09:09:32.978Z,41.27
2018-03-06T09:12:05.409Z,42.13
2018-03-06T09:14:38.158Z,41.07
2018-03-06T09:17:10.477Z,41.83
2018-03-06T09:19:42.418Z,41.06
2018-03-06T09:22:14.240Z,42.42
2018-03-06T09:24:47.064Z,42.31
2018-03-06T09:27:18.771Z,42.22
2018-03-06T09:29:51.046Z,42.11
2018-03-06T09:32:23.799Z,41.19
2018-03-06T09:34:55.009Z,41.01
2018-03-06T09:38:09.661Z,40.11
2018-03-06T09:40:41.872Z,43.36
2018-03-06T09:43:14.659Z,43.76
2018-03-06T09:45:47.957Z,40.96
2018-03-06T09:48:19.739Z,39.82
2018-03-06T09:50:51.723Z,39.61
2018-03-06T09:53:35.635Z,38.11
2018-03-06T09:56:08.791Z,36.50
2018-03-06T09:58:41.146Z,38.41
2018-03-06T10:01:13.624Z,38.11
2018-03-06T10:03:45.681Z,36.14
2018-03-06T10:06:17.340Z,35.25
2018-03-06T10:11:28.878Z,35.64
2018-03-06T10:14:00.125Z,36.12
2018-03-06T10:16:32.412Z,37.09
2018-03-06T10:19:08.772Z,34.94
2018-03-06T10:21:40.870Z,35.30
2018-03-06T10:24:15.734Z,35.93
2018-03-06T10:26:48.580Z,34.60
2018-03-06T10:29:20.100Z,34.37
2018-03-06T10:31:54.082Z,35.32
2018-03-06T10:34:26.145Z,34.76
2018-03-06T10:36:59.135Z,37.40
2018-03-06T10:39:32.391Z,35.93
2018-03-06T10:42:14.047Z,36.16
2018-03-06T10:44:51.984Z,35.67
2018-03-06T10:47:25.276Z,36.03
2018-03-06T10:50:11.176Z,36.09
2018-03-06T10:52:42.930Z,34.82
2018-03-06T10:55:21.867Z,34.60
2018-03-06T10:57:55.041Z,33.53
2018-03-06T11:00:33.359Z,34.73
2018-03-06T11:03:12.677Z,36.80
2018-03-06T11:05:55.888Z,34.45
2018-03-06T11:08:30.160Z,35.08
2018-03-06T11:11:04.922Z,34.43
2018-03-06T11:13:39.162Z,34.04
2018-03-06T11:16:14.569Z,35.48
2018-03-06T11:18:47.356Z,35.07
2018-03-06T11:21:26.256Z,36.07
2018-03-06T11:24:08.582Z,35.94
2018-03-06T11:26:40.852Z,35.24
2018-03-06T11:29:12.636Z,34.70
2018-03-06T11:31:44.820Z,35.02
2018-03-06T11:34:16.805Z,34.99
2018-03-06T11:36:49.276Z,34.56
2018-03-06T11:39:20.435Z,35.23
2018-03-06T11:41:52.859Z,35.93
2018-03-06T11:44:27.336Z,36.18
2018-03-06T11:46:58.744Z,36.45
2018-03-06T11:52:19.270Z,36.11
2018-03-06T11:54:54.163Z,35.89
2018-03-06T11:57:25.581Z,35.87
2018-03-06T11:59:57.965Z,35.37
2018-03-06T12:02:30.901Z,35.31
2018-03-06T12:05:02.581Z,34.01
2018-03-06T12:07:36.151Z,33.93
2018-03-06T12:10:07.743Z,34.25
2018-03-06T12:12:39.187Z,33.78
2018-03-06T12:15:13.677Z,36.65
2018-03-06T12:17:46.108Z,36.56
2018-03-06T12:20:17.944Z,36.79
2018-03-06T12:22:49.554Z,35.91
2018-03-06T12:25:22.693Z,36.21
2018-03-06T12:27:59.883Z,36.00
2018-03-06T12:30:34.604Z,36.66
2018-03-06T12:33:06.840Z,36.76
2018-03-06T12:35:39.440Z,36.34
2018-03-06T12:38:12.658Z,36.31
2018-03-06T12:40:44.363Z,36.61
2018-03-06T12:43:16.618Z,37.46
2018-03-06T12:45:53.456Z,37.66
2018-03-06T12:48:25.277Z,36.82
2018-03-06T12:50:57.761Z,36.86
2018-03-06T12:53:31.104Z,38.89
2018-03-06T12:56:04.045Z,37.71
2018-03-06T12:58:36.129Z,37.04
2018-03-06T13:01:08.548Z,36.66
2018-03-06T13:03:40.510Z,35.72
2018-03-06T13:06:13.138Z,35.56
2018-03-06T13:08:45.259Z,35.99
2018-03-06T13:11:16.136Z,36.88
2018-03-06T13:13:47.444Z,36.70
2018-03-06T13:16:19.018Z,38.18
2018-03-06T13:18:50.475Z,37.95
2018-03-06T13:24:05.602Z,37.39
2018-03-06T13:26:38.743Z,37.11
2018-03-06T13:29:11.817Z,36.86
2018-03-06T13:31:44.071Z,36.87
2018-03-06T13:34:20.430Z,37.09
2018-03-06T13:36:52.005Z,37.37
2018-03-06T13:39:23.541Z,38.24
2018-03-06T13:41:55.409Z,38.24
2018-03-06T13:44:27.611Z,37.26
2018-03-06T13:46:59.983Z,35.97
2018-03-06T13:49:31.940Z,36.02
2018-03-06T13:54:47.846Z,36.14
2018-03-06T13:57:21.753Z,36.26
2018-03-06T13:59:53.527Z,36.57
2018-03-06T14:02:24.922Z,37.44
2018-03-06T14:04:56.687Z,37.50
2018-03-06T14:07:41.623Z,36.98
2018-03-06T14:10:29.903Z,36.66
2018-03-06T14:13:06.504Z,36.20
2018-03-06T14:15:39.156Z,37.29
2018-03-06T14:18:12.461Z,38.08
2018-03-06T14:20:43.841Z,38.13
2018-03-06T14:23:21.400Z,37.93
2018-03-06T14:25:55.292Z,38.28
2018-03-06T14:28:27.512Z,38.63
2018-03-06T14:31:01.734Z,38.91
2018-03-06T14:33:32.876Z,39.23
2018-03-06T14:36:06.203Z,39.58
2018-03-06T14:38:37.542Z,39.34
2018-03-06T14:41:08.994Z,39.73
2018-03-06T14:43:41.061Z,40.40
2018-03-06T14:46:13.529Z,40.21
2018-03-06T14:48:44.804Z,40.49
2018-03-06T14:51:15.899Z,41.34
2018-03-06T14:56:27.423Z,41.10
2018-03-06T14:59:01.300Z,41.56
2018-03-06T15:01:33.296Z,41.28
2018-03-06T15:04:05.356Z,41.01
2018-03-06T15:06:37.541Z,40.95
2018-03-06T15:09:09.402Z,41.22
2018-03-06T15:11:47.487Z,41.50
2018-03-06T15:14:22.162Z,41.41
2018-03-06T15:16:55.285Z,41.21
2018-03-06T15:19:28.433Z,42.15
2018-03-06T15:22:01.873Z,42.91
2018-03-06T15:24:35.380Z,43.13
2018-03-06T15:27:07.472Z,42.91
2018-03-06T15:29:40.298Z,42.50
2018-03-06T15:32:12.264Z,42.76
2018-03-06T15:34:47.134Z,43.26
2018-03-06T15:37:23.528Z,44.26
2018-03-06T15:39:56.700Z,44.61
2018-03-06T15:42:28.912Z,44.81
2018-03-06T15:45:00.807Z,44.48
2018-03-06T15:47:34.449Z,44.36
2018-03-06T15:50:07.240Z,44.25
2018-03-06T15:52:42.181Z,44.32
2018-03-06T15:55:14.933Z,44.86
2018-03-06T15:57:53.305Z,44.76
2018-03-06T16:03:11.405Z,45.93
2018-03-06T16:05:58.385Z,45.88
2018-03-06T16:08:30.856Z,45.61
2018-03-06T16:11:02.353Z,45.26
2018-03-06T16:13:33.778Z,45.22
2018-03-06T16:16:05.693Z,45.55
2018-03-06T16:18:38.465Z,46.11
2018-03-06T16:21:10.248Z,46.51
2018-03-06T16:23:43.494Z,46.70
2018-03-06T16:26:18.460Z,46.80
2018-03-06T16:28:51.677Z,46.59
2018-03-06T16:33:46.781Z,46.70
2018-03-06T16:36:18.716Z,46.72
2018-03-06T16:38:51.152Z,46.72
2018-03-06T16:41:22.591Z,47.25
2018-03-06T16:43:54.316Z,47.43
2018-03-06T16:46:28.691Z,47.50
2018-03-06T16:49:04.157Z,47.78
2018-03-06T16:51:36.409Z,48.04
2018-03-06T16:54:30.932Z,48.48
2018-03-06T16:57:10.844Z,48.49
2018-03-06T16:59:44.643Z,48.18
2018-03-06T17:02:26.532Z,48.05
2018-03-06T17:04:59.820Z,47.95
2018-03-06T17:07:31.629Z,47.58
2018-03-06T17:10:07.339Z,48.54
2018-03-06T17:12:39.549Z,48.25
2018-03-06T17:21:55.237Z,48.40
2018-03-06T17:24:34.610Z,48.44
2018-03-06T17:27:08.883Z,48.95
2018-03-06T17:29:44.888Z,49.39
2018-03-06T17:32:22.598Z,50.12
2018-03-06T17:34:55.520Z,50.17
2018-03-06T17:37:42.832Z,49.92
2018-03-06T17:40:16.292Z,50.19
2018-03-06T17:45:27.938Z,50.04
2018-03-06T17:48:12.632Z,50.20
2018-03-06T17:50:48.960Z,50.24
2018-03-06T17:53:22.797Z,49.89
2018-03-06T17:55:54.657Z,50.40
2018-03-06T17:58:26.313Z,50.13
2018-03-06T18:01:02.420Z,50.24
2018-03-06T18:03:34.428Z,50.73
2018-03-06T18:06:13.823Z,51.01
2018-03-06T18:08:55.166Z,51.69
2018-03-06T18:11:37.029Z,51.81
2018-03-06T18:17:15.545Z,51.48
2018-03-06T18:19:49.534Z,52.14
2018-03-06T18:22:32.137Z,51.58
2018-03-06T18:25:10.079Z,51.80
2018-03-06T18:27:45.698Z,51.89
2018-03-06T18:30:19.147Z,51.97
2018-03-06T18:32:50.726Z,51.80
2018-03-06T18:35:23.989Z,51.77
2018-03-06T18:37:56.648Z,51.57
2018-03-06T18:40:30.761Z,51.62
2018-03-06T18:43:03.249Z,51.62
2018-03-06T18:45:37.051Z,51.46
2018-03-06T18:48:14.116Z,51.18
2018-03-06T18:53:54.778Z,50.72
2018-03-06T18:56:34.398Z,50.81
2018-03-06T18:59:06.302Z,51.13
2018-03-06T19:02:45.680Z,50.99
2018-03-06T19:06:25.356Z,51.30
2018-03-06T19:08:56.917Z,50.90
2018-03-06T19:11:28.515Z,51.17
2018-03-06T19:14:00.366Z,51.38
2018-03-06T19:16:34.151Z,51.52
2018-03-06T19:19:06.731Z,51.54
2018-03-06T19:21:40.115Z,51.85
2018-03-06T19:24:19.884Z,51.73
2018-03-06T19:26:51.640Z,51.91
2018-03-06T19:29:39.154Z,51.61
2018-03-06T19:32:31.657Z,52.00
2018-03-06T19:35:05.853Z,52.04
2018-03-06T19:37:37.291Z,51.97
2018-03-06T19:40:12.656Z,51.89
2018-03-06T19:42:44.239Z,51.69
2018-03-06T19:45:22.342Z,51.41
2018-03-06T19:47:53.726Z,51.49
2018-03-06T19:50:31.258Z,51.18
2018-03-06T19:53:18.756Z,51.16
2018-03-06T19:55:49.615Z,51.10
2018-03-06T19:58:21.989Z,51.27
2018-03-06T20:00:57.010Z,51.20
2018-03-06T20:03:28.848Z,51.55
2018-03-06T20:06:00.392Z,51.62
2018-03-06T20:08:31.329Z,51.33
2018-03-06T20:11:02.793Z,51.17
2018-03-06T20:13:34.773Z,51.56
2018-03-06T20:16:07.025Z,52.25
2018-03-06T20:18:37.927Z,52.22
2018-03-06T20:21:09.336Z,51.92
2018-03-06T20:23:40.505Z,52.05
2018-03-06T20:26:12.714Z,52.42
2018-03-06T20:28:43.467Z,52.04
2018-03-06T20:33:22.666Z,52.19
2018-03-06T20:35:56.248Z,52.05
2018-03-06T20:38:31.177Z,52.05
2018-03-06T20:41:02.459Z,52.18
2018-03-06T20:43:33.314Z,52.19
2018-03-06T20:46:08.948Z,51.82
2018-03-06T20:51:17.879Z,52.01
2018-03-06T20:56:00.060Z,51.79
2018-03-06T20:58:31.666Z,52.34
2018-03-06T21:01:04.615Z,52.60
2018-03-06T21:03:35.916Z,52.66
2018-03-06T21:06:06.964Z,52.46
2018-03-06T21:08:39.777Z,52.61
2018-03-06T21:11:11.216Z,52.27
2018-03-06T21:13:43.298Z,52.43
2018-03-06T21:16:14.398Z,52.47
2018-03-06T21:18:45.765Z,53.09
2018-03-06T21:21:17.345Z,53.42
2018-03-06T21:23:49.445Z,53.58
2018-03-06T21:26:20.718Z,53.44
2018-03-06T21:28:51.583Z,53.69
2018-03-06T21:31:23.439Z,53.93
2018-03-06T21:33:54.547Z,53.62
2018-03-06T21:36:25.590Z,53.45
2018-03-06T21:38:56.962Z,53.33
2018-03-06T21:41:28.075Z,53.41
2018-03-06T21:43:59.686Z,53.59
2018-03-06T21:46:32.264Z,53.55
2018-03-06T21:49:04.323Z,54.15
2018-03-06T21:51:36.453Z,54.68
2018-03-06T21:54:08.841Z,54.62
2018-03-06T21:56:41.554Z,55.28
2018-03-06T21:59:12.690Z,54.96
2018-03-06T22:01:45.610Z,54.94
2018-03-06T22:04:16.504Z,55.05
2018-03-06T22:06:47.916Z,55.45
2018-03-06T22:09:20.399Z,55.29
2018-03-06T22:11:52.712Z,55.25
2018-03-06T22:14:23.710Z,55.05
2018-03-06T22:16:55.055Z,54.78
2018-03-06T22:19:27.690Z,54.82
2018-03-06T22:21:59.625Z,54.84
2018-03-06T22:24:31.506Z,54.98
2018-03-06T22:27:02.651Z,54.80
2018-03-06T22:29:39.879Z,54.98
2018-03-06T22:32:12.538Z,55.10
2018-03-06T22:34:44.602Z,54.92
2018-03-06T22:37:15.593Z,55.33
2018-03-06T22:39:46.627Z,55.09
2018-03-06T22:42:18.518Z,54.95
2018-03-06T22:44:50.166Z,54.82
2018-03-06T22:47:21.588Z,54.81
2018-03-06T22:49:52.922Z,54.91
2018-03-06T22:52:23.902Z,55.21
2018-03-06T22:54:55.412Z,55.56
2018-03-06T22:57:27.855Z,55.58
2018-03-06T22:59:59.850Z,55.22
2018-03-06T23:02:31.707Z,55.14
2018-03-06T23:05:04.581Z,55.03
2018-03-06T23:07:36.578Z,54.87
2018-03-06T23:10:07.821Z,54.78
2018-03-06T23:12:38.910Z,55.00
2018-03-06T23:15:12.793Z,55.19
2018-03-06T23:17:44.797Z,54.94
2018-03-06T23:20:16.102Z,54.78
2018-03-06T23:22:48.084Z,54.71
2018-03-06T23:25:19.914Z,54.88
2018-03-06T23:27:52.176Z,55.15
2018-03-06T23:30:23.323Z,55.36
2018-03-06T23:32:54.493Z,55.66
2018-03-06T23:35:25.544Z,55.63
2018-03-06T23:37:56.711Z,55.62
2018-03-06T23:40:29.777Z,55.41
2018-03-06T23:43:02.205Z,55.18
2018-03-06T23:45:36.256Z,55.07
2018-03-06T23:48:07.778Z,55.14
2018-03-06T23:50:39.376Z,54.89
2018-03-06T23:53:11.517Z,54.97
2018-03-06T23:55:42.922Z,56.02
2018-03-06T23:58:14.954Z,56.19
